createdAt,value
2018-07-26T00:00:48.004Z,23.01
2018-07-26T00:01:47.990Z,23.02
2018-07-26T00:02:47.981Z,23.02
2018-07-26T00:03:47.987Z,23.00
2018-07-26T00:04:47.968Z,23.00
2018-07-26T00:05:47.958Z,23.01
2018-07-26T00:06:47.938Z,23.10
2018-07-26T00:07:47.932Z,23.20
2018-07-26T00:08:47.916Z,23.23
2018-07-26T00:09:47.910Z,23.38
2018-07-26T00:10:47.896Z,23.39
2018-07-26T00:11:47.892Z,23.51
2018-07-26T00:12:47.877Z,23.46
2018-07-26T00:13:47.872Z,23.33
2018-07-26T00:14:47.854Z,23.22
2018-07-26T00:15:47.846Z,23.16
2018-07-26T00:16:47.835Z,23.07
2018-07-26T00:17:47.825Z,22.97
2018-07-26T00:18:47.810Z,22.98
2018-07-26T00:19:47.803Z,22.88
2018-07-26T00:20:47.794Z,22.80
2018-07-26T00:21:47.779Z,22.82
2018-07-26T00:22:47.773Z,22.75
2018-07-26T00:23:47.756Z,22.73
2018-07-26T00:24:47.743Z,22.61
2018-07-26T00:25:47.736Z,22.61
2018-07-26T00:26:47.723Z,22.62
2018-07-26T00:27:47.713Z,22.55
2018-07-26T00:28:47.705Z,22.64
2018-07-26T00:29:47.689Z,22.67
2018-07-26T00:30:47.685Z,22.68
2018-07-26T00:31:47.675Z,22.79
2018-07-26T00:32:47.660Z,22.82
2018-07-26T00:33:47.647Z,22.92
2018-07-26T00:34:47.638Z,22.91
2018-07-26T00:35:47.626Z,22.95
2018-07-26T00:36:47.618Z,22.94
2018-07-26T00:37:47.604Z,23.04
2018-07-26T00:38:47.593Z,23.01
2018-07-26T00:39:47.585Z,23.05
2018-07-26T00:40:47.576Z,23.01
2018-07-26T00:41:47.563Z,23.00
2018-07-26T00:42:47.551Z,23.04
2018-07-26T00:43:47.541Z,22.98
2018-07-26T00:44:47.529Z,23.19
2018-07-26T00:45:47.517Z,23.16
2018-07-26T00:46:47.511Z,23.19
2018-07-26T00:47:47.499Z,23.22
2018-07-26T00:48:47.495Z,23.28
2018-07-26T00:49:47.479Z,23.31
2018-07-26T00:50:47.464Z,23.33
2018-07-26T00:51:47.453Z,23.36
2018-07-26T00:52:47.444Z,23.35
2018-07-26T00:53:47.434Z,23.32
2018-07-26T00:54:47.424Z,23.39
2018-07-26T00:55:47.417Z,23.38
2018-07-26T00:56:47.402Z,23.36
2018-07-26T00:57:47.389Z,23.40
2018-07-26T00:58:47.382Z,23.35
2018-07-26T00:59:47.371Z,23.46
2018-07-26T01:00:47.357Z,23.53
2018-07-26T01:01:47.353Z,23.55
2018-07-26T01:02:47.334Z,23.65
2018-07-26T01:03:47.323Z,23.58
2018-07-26T01:04:47.313Z,23.55
2018-07-26T01:05:47.302Z,23.48
2018-07-26T01:06:47.289Z,23.42
2018-07-26T01:07:47.280Z,23.36
2018-07-26T01:08:47.272Z,23.36
2018-07-26T01:09:47.260Z,23.25
2018-07-26T01:10:47.250Z,23.17
2018-07-26T01:11:47.240Z,23.16
2018-07-26T01:12:47.231Z,23.15
2018-07-26T01:13:47.218Z,23.17
2018-07-26T01:14:47.204Z,23.20
2018-07-26T01:15:47.194Z,23.20
2018-07-26T01:16:47.182Z,23.16
2018-07-26T01:17:47.178Z,23.13
2018-07-26T01:18:47.166Z,23.15
2018-07-26T01:19:47.149Z,23.13
2018-07-26T01:20:47.140Z,23.13
2018-07-26T01:21:47.127Z,23.15
2018-07-26T01:22:47.117Z,23.17
2018-07-26T01:23:47.105Z,23.16
2018-07-26T01:24:47.103Z,23.05
2018-07-26T01:25:47.084Z,23.05
2018-07-26T01:26:47.072Z,23.15
2018-07-26T01:27:47.064Z,23.19
2018-07-26T01:28:47.054Z,23.23
2018-07-26T01:29:47.046Z,23.22
2018-07-26T01:30:47.031Z,23.19
2018-07-26T01:31:47.031Z,23.19
2018-07-26T01:32:47.013Z,23.12
2018-07-26T01:33:47.001Z,23.20
2018-07-26T01:34:46.987Z,23.22
2018-07-26T01:35:46.976Z,23.16
2018-07-26T01:36:46.966Z,23.16
2018-07-26T01:37:46.954Z,23.27
2018-07-26T01:38:46.951Z,23.16
2018-07-26T01:39:46.936Z,23.23
2018-07-26T01:40:46.921Z,23.32
2018-07-26T01:41:46.910Z,23.39
2018-07-26T01:42:46.903Z,23.40
2018-07-26T01:43:46.890Z,23.43
2018-07-26T01:44:46.880Z,23.43
2018-07-26T01:45:46.867Z,23.42
2018-07-26T01:46:46.860Z,23.48
2018-07-26T01:47:46.848Z,23.38
2018-07-26T01:48:46.836Z,23.46
2018-07-26T01:49:46.824Z,23.36
2018-07-26T01:50:46.814Z,23.39
2018-07-26T01:51:46.801Z,23.33
2018-07-26T01:52:46.792Z,23.36
2018-07-26T01:53:46.782Z,23.20
2018-07-26T01:54:46.770Z,23.20
2018-07-26T01:55:46.760Z,23.19
2018-07-26T01:56:46.749Z,23.15
2018-07-26T01:57:46.736Z,23.05
2018-07-26T01:58:46.727Z,22.98
2018-07-26T01:59:46.713Z,23.04
2018-07-26T02:00:46.704Z,23.19
2018-07-26T02:01:46.715Z,23.16
2018-07-26T02:02:46.684Z,23.20
2018-07-26T02:03:46.672Z,23.20
2018-07-26T02:04:46.668Z,23.23
2018-07-26T02:05:46.650Z,23.22
2018-07-26T02:06:46.637Z,23.23
2018-07-26T02:07:46.629Z,23.25
2018-07-26T02:08:46.619Z,23.42
2018-07-26T02:09:46.605Z,23.33
2018-07-26T02:10:46.593Z,23.20
2018-07-26T02:11:46.587Z,23.22
2018-07-26T02:12:46.573Z,23.23
2018-07-26T02:13:46.561Z,23.23
2018-07-26T02:14:46.552Z,23.23
2018-07-26T02:15:46.542Z,23.16
2018-07-26T02:16:46.531Z,23.07
2018-07-26T02:17:46.519Z,23.00
2018-07-26T02:18:46.507Z,23.04
2018-07-26T02:19:46.497Z,22.94
2018-07-26T02:20:46.487Z,22.98
2018-07-26T02:21:46.475Z,22.98
2018-07-26T02:22:46.473Z,22.79
2018-07-26T02:23:46.456Z,22.85
2018-07-26T02:24:46.442Z,22.80
2018-07-26T02:25:46.433Z,22.76
2018-07-26T02:26:46.421Z,22.68
2018-07-26T02:27:46.413Z,22.64
2018-07-26T02:28:46.403Z,22.60
2018-07-26T02:29:46.386Z,22.37
2018-07-26T02:30:46.376Z,22.27
2018-07-26T02:31:46.375Z,22.21
2018-07-26T02:32:46.354Z,22.14
2018-07-26T02:33:46.343Z,22.09
2018-07-26T02:34:46.341Z,22.00
2018-07-26T02:35:46.320Z,22.03
2018-07-26T02:36:46.336Z,22.12
2018-07-26T02:37:46.303Z,22.03
2018-07-26T02:38:46.289Z,22.00
2018-07-26T02:39:46.280Z,22.14
2018-07-26T02:40:46.266Z,22.18
2018-07-26T02:41:46.253Z,22.21
2018-07-26T02:42:46.247Z,22.22
2018-07-26T02:43:46.232Z,22.22
2018-07-26T02:44:46.221Z,22.21
2018-07-26T02:45:46.210Z,22.28
2018-07-26T02:46:46.198Z,22.28
2018-07-26T02:47:46.188Z,22.24
2018-07-26T02:48:46.181Z,22.20
2018-07-26T02:49:46.164Z,22.25
2018-07-26T02:50:46.155Z,22.24
2018-07-26T02:51:46.146Z,22.21
2018-07-26T02:52:46.136Z,22.21
2018-07-26T02:53:46.119Z,22.36
2018-07-26T02:54:46.112Z,22.42
2018-07-26T02:55:46.109Z,22.52
2018-07-26T02:56:46.088Z,22.61
2018-07-26T02:57:46.082Z,22.58
2018-07-26T02:58:46.065Z,22.70
2018-07-26T02:59:46.052Z,22.75
2018-07-26T03:00:46.051Z,22.72
2018-07-26T03:01:46.030Z,22.58
2018-07-26T03:02:46.021Z,22.49
2018-07-26T03:03:46.010Z,22.49
2018-07-26T03:04:46.003Z,22.47
2018-07-26T03:05:45.989Z,22.45
2018-07-26T03:06:45.976Z,22.46
2018-07-26T03:07:45.974Z,22.61
2018-07-26T03:08:45.957Z,22.62
2018-07-26T03:09:45.942Z,22.62
2018-07-26T03:10:45.934Z,22.64
2018-07-26T03:11:45.921Z,22.65
2018-07-26T03:12:45.912Z,22.79
2018-07-26T03:13:45.896Z,22.80
2018-07-26T03:14:45.887Z,22.85
2018-07-26T03:15:45.885Z,22.95
2018-07-26T03:16:45.866Z,22.80
2018-07-26T03:17:45.852Z,22.82
2018-07-26T03:18:45.842Z,22.86
2018-07-26T03:19:45.833Z,22.67
2018-07-26T03:20:45.834Z,22.37
2018-07-26T03:21:45.808Z,22.18
2018-07-26T03:22:45.796Z,22.02
2018-07-26T03:23:45.786Z,22.02
2018-07-26T03:24:45.777Z,21.82
2018-07-26T03:25:45.767Z,21.80
2018-07-26T03:26:45.765Z,21.77
2018-07-26T03:27:45.741Z,21.83
2018-07-26T03:28:45.731Z,21.82
2018-07-26T03:29:45.720Z,22.03
2018-07-26T03:30:45.706Z,22.00
2018-07-26T03:31:45.696Z,22.03
2018-07-26T03:32:45.684Z,22.07
2018-07-26T03:33:45.674Z,22.15
2018-07-26T03:34:45.662Z,22.21
2018-07-26T03:35:45.651Z,22.25
2018-07-26T03:36:45.639Z,22.35
2018-07-26T03:37:45.631Z,22.42
2018-07-26T03:38:45.616Z,22.42
2018-07-26T03:39:45.605Z,22.51
2018-07-26T03:40:45.594Z,22.46
2018-07-26T03:41:45.581Z,22.46
2018-07-26T03:42:45.572Z,22.43
2018-07-26T03:43:45.560Z,22.37
2018-07-26T03:44:45.550Z,22.31
2018-07-26T03:45:45.539Z,22.27
2018-07-26T03:46:45.527Z,22.24
2018-07-26T03:47:45.514Z,22.22
2018-07-26T03:48:45.505Z,22.27
2018-07-26T03:49:45.494Z,22.27
2018-07-26T03:50:45.483Z,22.18
2018-07-26T03:51:45.474Z,22.25
2018-07-26T03:52:45.465Z,22.28
2018-07-26T03:53:45.448Z,22.21
2018-07-26T03:54:45.438Z,22.24
2018-07-26T03:55:45.441Z,22.25
2018-07-26T03:56:45.415Z,22.22
2018-07-26T03:57:45.415Z,22.39
2018-07-26T03:58:45.391Z,22.22
2018-07-26T03:59:45.379Z,22.30
2018-07-26T04:00:45.371Z,22.28
2018-07-26T04:01:45.356Z,22.30
2018-07-26T04:02:45.344Z,22.27
2018-07-26T04:03:45.336Z,22.25
2018-07-26T04:04:45.321Z,22.25
2018-07-26T04:05:45.314Z,22.27
2018-07-26T04:06:45.296Z,22.24
2018-07-26T04:07:45.287Z,22.37
2018-07-26T04:08:45.276Z,22.37
2018-07-26T04:09:45.264Z,22.33
2018-07-26T04:10:45.254Z,22.33
2018-07-26T04:11:45.247Z,22.42
2018-07-26T04:12:45.236Z,22.36
2018-07-26T04:13:45.218Z,22.37
2018-07-26T04:14:45.207Z,22.42
2018-07-26T04:15:45.197Z,22.42
2018-07-26T04:16:45.187Z,22.42
2018-07-26T04:17:45.175Z,22.39
2018-07-26T04:18:45.166Z,22.33
2018-07-26T04:19:45.152Z,22.43
2018-07-26T04:20:45.141Z,22.49
2018-07-26T04:21:45.131Z,22.49
2018-07-26T04:22:45.120Z,22.47
2018-07-26T04:23:45.107Z,22.57
2018-07-26T04:24:45.099Z,22.61
2018-07-26T04:25:45.084Z,22.68
2018-07-26T04:26:45.084Z,22.64
2018-07-26T04:27:45.061Z,22.80
2018-07-26T04:28:45.052Z,22.82
2018-07-26T04:29:45.039Z,22.83
2018-07-26T04:30:45.035Z,22.91
2018-07-26T04:31:45.102Z,22.83
2018-07-26T04:32:45.006Z,22.98
2018-07-26T04:33:44.996Z,22.90
2018-07-26T04:34:44.980Z,22.98
2018-07-26T04:35:44.970Z,22.88
2018-07-26T04:36:44.960Z,22.85
2018-07-26T04:37:44.952Z,22.86
2018-07-26T04:38:44.936Z,22.91
2018-07-26T04:39:44.924Z,22.91
2018-07-26T04:40:44.915Z,22.95
2018-07-26T04:41:44.911Z,22.90
2018-07-26T04:42:44.892Z,22.82
2018-07-26T04:43:44.882Z,22.80
2018-07-26T04:44:44.868Z,22.86
2018-07-26T04:45:44.856Z,22.88
2018-07-26T04:46:44.846Z,22.95
2018-07-26T04:47:44.838Z,22.80
2018-07-26T04:48:44.824Z,22.85
2018-07-26T04:49:44.811Z,22.91
2018-07-26T04:50:44.802Z,22.90
2018-07-26T04:51:44.791Z,22.92
2018-07-26T04:52:44.792Z,22.94
2018-07-26T04:53:44.767Z,22.94
2018-07-26T04:54:44.764Z,23.04
2018-07-26T04:55:44.752Z,23.04
2018-07-26T04:56:44.733Z,22.95
2018-07-26T04:57:44.722Z,22.98
2018-07-26T04:58:44.723Z,23.05
2018-07-26T04:59:44.704Z,23.15
2018-07-26T05:00:44.689Z,23.19
2018-07-26T05:01:44.676Z,23.20
2018-07-26T05:02:44.665Z,23.28
2018-07-26T05:03:44.655Z,23.28
2018-07-26T05:04:44.644Z,23.35
2018-07-26T05:05:44.637Z,23.50
2018-07-26T05:06:44.630Z,23.50
2018-07-26T05:07:44.609Z,23.55
2018-07-26T05:08:44.598Z,23.61
2018-07-26T05:09:44.588Z,23.66
2018-07-26T05:10:44.576Z,23.68
2018-07-26T05:11:44.568Z,23.79
2018-07-26T05:12:44.555Z,23.84
2018-07-26T05:13:44.544Z,23.93
2018-07-26T05:14:44.536Z,23.88
2018-07-26T05:15:44.521Z,23.88
2018-07-26T05:16:44.511Z,23.88
2018-07-26T05:17:44.502Z,24.02
2018-07-26T05:18:44.495Z,24.02
2018-07-26T05:19:44.475Z,24.00
2018-07-26T05:20:44.465Z,24.06
2018-07-26T05:21:44.455Z,24.06
2018-07-26T05:22:44.445Z,24.08
2018-07-26T05:23:44.432Z,24.09
2018-07-26T05:24:44.422Z,24.08
2018-07-26T05:25:44.409Z,24.10
2018-07-26T05:26:44.400Z,24.06
2018-07-26T05:27:44.437Z,24.06
2018-07-26T05:28:44.382Z,24.10
2018-07-26T05:29:44.397Z,24.15
2018-07-26T05:30:44.360Z,24.09
2018-07-26T05:31:44.344Z,24.03
2018-07-26T05:32:44.337Z,24.08
2018-07-26T05:33:44.324Z,24.12
2018-07-26T05:34:44.309Z,24.05
2018-07-26T05:35:44.299Z,24.16
2018-07-26T05:36:44.292Z,24.06
2018-07-26T05:37:44.315Z,24.10
2018-07-26T05:38:44.265Z,24.13
2018-07-26T05:39:44.257Z,24.18
2018-07-26T05:40:44.248Z,24.30
2018-07-26T05:41:44.234Z,24.27
2018-07-26T05:42:44.223Z,24.34
2018-07-26T05:43:44.211Z,24.32
2018-07-26T05:44:44.200Z,24.34
2018-07-26T05:45:44.189Z,24.39
2018-07-26T05:46:44.179Z,24.37
2018-07-26T05:47:44.167Z,24.40
2018-07-26T05:48:44.160Z,24.43
2018-07-26T05:49:44.153Z,24.37
2018-07-26T05:50:44.146Z,24.35
2018-07-26T05:51:44.131Z,24.35
2018-07-26T05:52:44.152Z,24.45
2018-07-26T05:53:44.103Z,24.42
2018-07-26T05:54:44.098Z,24.37
2018-07-26T05:55:44.082Z,24.35
2018-07-26T05:56:44.070Z,24.37
2018-07-26T05:57:44.059Z,24.45
2018-07-26T05:58:44.053Z,24.42
2018-07-26T05:59:44.042Z,24.45
2018-07-26T06:00:44.029Z,24.57
2018-07-26T06:01:44.014Z,24.55
2018-07-26T06:02:44.011Z,24.50
2018-07-26T06:03:44.003Z,24.58
2018-07-26T06:04:43.983Z,24.52
2018-07-26T06:05:43.973Z,24.64
2018-07-26T06:06:43.961Z,24.58
2018-07-26T06:07:43.953Z,24.52
2018-07-26T06:08:43.944Z,24.53
2018-07-26T06:09:44.001Z,24.57
2018-07-26T06:10:43.922Z,24.62
2018-07-26T06:11:43.907Z,24.69
2018-07-26T06:12:43.902Z,24.71
2018-07-26T06:13:43.895Z,24.67
2018-07-26T06:14:43.874Z,24.77
2018-07-26T06:15:43.863Z,24.71
2018-07-26T06:16:43.855Z,24.77
2018-07-26T06:17:43.848Z,24.73
2018-07-26T06:18:43.832Z,24.71
2018-07-26T06:19:43.822Z,24.68
2018-07-26T06:20:43.857Z,24.76
2018-07-26T06:21:43.798Z,24.76
2018-07-26T06:22:43.788Z,24.71
2018-07-26T06:23:43.777Z,24.69
2018-07-26T06:24:43.820Z,24.67
2018-07-26T06:25:43.757Z,24.85
2018-07-26T06:26:43.744Z,24.83
2018-07-26T06:27:43.739Z,24.87
2018-07-26T06:28:43.724Z,24.87
2018-07-26T06:29:43.712Z,24.93
2018-07-26T06:30:43.706Z,24.98
2018-07-26T06:31:43.695Z,25.00
2018-07-26T06:32:43.684Z,25.06
2018-07-26T06:33:43.697Z,25.02
2018-07-26T06:34:43.662Z,25.05
2018-07-26T06:35:43.651Z,25.08
2018-07-26T06:36:43.638Z,25.09
2018-07-26T06:37:43.628Z,25.08
2018-07-26T06:38:43.615Z,25.15
2018-07-26T06:39:43.606Z,25.14
2018-07-26T06:40:43.597Z,25.15
2018-07-26T06:41:43.591Z,25.10
2018-07-26T06:42:43.577Z,25.14
2018-07-26T06:43:43.563Z,25.25
2018-07-26T06:44:43.555Z,25.24
2018-07-26T06:45:43.543Z,25.33
2018-07-26T06:46:43.535Z,25.20
2018-07-26T06:47:43.525Z,25.24
2018-07-26T06:48:43.516Z,25.17
2018-07-26T06:49:43.499Z,25.28
2018-07-26T06:50:43.489Z,25.39
2018-07-26T06:51:43.477Z,25.43
2018-07-26T06:52:43.470Z,25.36
2018-07-26T06:53:43.456Z,25.43
2018-07-26T06:54:43.450Z,25.40
2018-07-26T06:55:43.436Z,25.54
2018-07-26T06:56:43.429Z,25.46
2018-07-26T06:57:43.418Z,25.51
2018-07-26T06:58:43.408Z,25.54
2018-07-26T06:59:43.396Z,25.57
2018-07-26T07:00:43.396Z,25.51
2018-07-26T07:01:43.383Z,25.60
2018-07-26T07:02:43.365Z,25.60
2018-07-26T07:03:43.352Z,25.60
2018-07-26T07:04:43.343Z,25.67
2018-07-26T07:05:43.334Z,25.64
2018-07-26T07:06:43.321Z,25.64
2018-07-26T07:07:43.314Z,25.69
2018-07-26T07:08:43.314Z,25.77
2018-07-26T07:09:43.289Z,25.76
2018-07-26T07:10:43.283Z,25.80
2018-07-26T07:11:43.270Z,25.79
2018-07-26T07:12:43.260Z,25.77
2018-07-26T07:13:43.248Z,25.85
2018-07-26T07:14:43.238Z,25.90
2018-07-26T07:15:43.231Z,25.88
2018-07-26T07:16:43.218Z,26.01
2018-07-26T07:17:43.210Z,26.01
2018-07-26T07:19:43.192Z,26.10
2018-07-26T07:20:43.179Z,26.17
2018-07-26T07:21:43.174Z,26.30
2018-07-26T07:22:43.167Z,26.30
2018-07-26T07:23:43.148Z,26.35
2018-07-26T07:24:43.135Z,26.36
2018-07-26T07:25:43.128Z,26.35
2018-07-26T07:26:43.117Z,26.30
2018-07-26T07:27:43.165Z,26.35
2018-07-26T07:28:43.097Z,26.35
2018-07-26T07:29:43.088Z,26.40
2018-07-26T07:30:43.076Z,26.51
2018-07-26T07:31:43.070Z,26.47
2018-07-26T07:32:43.057Z,26.55
2018-07-26T07:33:43.043Z,26.65
2018-07-26T07:34:43.033Z,26.72
2018-07-26T07:35:43.028Z,26.73
2018-07-26T07:36:43.018Z,26.80
2018-07-26T07:37:43.025Z,26.82
2018-07-26T07:38:42.996Z,26.81
2018-07-26T07:39:42.988Z,26.91
2018-07-26T07:40:42.971Z,26.94
2018-07-26T07:41:42.994Z,26.99
2018-07-26T07:42:42.955Z,27.10
2018-07-26T07:43:42.945Z,27.12
2018-07-26T07:44:42.931Z,27.13
2018-07-26T07:45:42.921Z,27.14
2018-07-26T07:46:42.957Z,27.19
2018-07-26T07:47:42.969Z,27.18
2018-07-26T07:48:42.896Z,27.36
2018-07-26T07:49:42.888Z,27.25
2018-07-26T07:50:42.869Z,27.29
2018-07-26T07:51:42.861Z,27.50
2018-07-26T07:52:42.852Z,27.59
2018-07-26T07:53:42.845Z,27.60
2018-07-26T07:54:42.831Z,27.63
2018-07-26T07:55:42.821Z,27.65
2018-07-26T07:56:42.821Z,27.70
2018-07-26T07:57:42.805Z,27.84
2018-07-26T07:58:42.792Z,27.85
2018-07-26T07:59:42.833Z,27.84
2018-07-26T08:00:42.774Z,27.92
2018-07-26T08:01:42.763Z,28.04
2018-07-26T08:02:42.754Z,28.09
2018-07-26T08:03:42.744Z,28.17
2018-07-26T08:04:42.734Z,28.33
2018-07-26T08:05:42.725Z,28.36
2018-07-26T08:06:42.737Z,28.48
2018-07-26T08:07:42.712Z,28.52
2018-07-26T08:08:42.696Z,28.52
2018-07-26T08:09:42.685Z,28.66
2018-07-26T08:10:42.677Z,28.66
2018-07-26T08:11:42.667Z,28.68
2018-07-26T08:12:42.764Z,28.71
2018-07-26T08:13:42.648Z,28.67
2018-07-26T08:14:42.638Z,28.74
2018-07-26T08:15:42.633Z,28.80
2018-07-26T08:16:42.628Z,28.81
2018-07-26T08:17:42.609Z,29.05
2018-07-26T08:18:42.600Z,28.98
2018-07-26T08:19:42.595Z,29.05
2018-07-26T08:20:42.581Z,29.11
2018-07-26T08:21:42.577Z,29.05
2018-07-26T08:22:42.562Z,29.16
2018-07-26T08:23:42.556Z,29.24
2018-07-26T08:24:42.545Z,29.19
2018-07-26T08:25:42.534Z,29.30
2018-07-26T08:26:42.526Z,29.28
2018-07-26T08:27:42.525Z,29.37
2018-07-26T08:28:42.508Z,29.45
2018-07-26T08:29:42.498Z,29.52
2018-07-26T08:30:42.488Z,29.63
2018-07-26T08:31:42.480Z,29.63
2018-07-26T08:32:42.473Z,29.65
2018-07-26T08:33:42.459Z,29.79
2018-07-26T08:34:42.467Z,29.86
2018-07-26T08:36:43.840Z,29.98
2018-07-26T08:37:42.432Z,30.10
2018-07-26T08:38:42.425Z,30.20
2018-07-26T08:39:42.410Z,30.29
2018-07-26T08:40:42.403Z,30.37
2018-07-26T08:41:42.388Z,30.43
2018-07-26T08:42:42.383Z,30.60
2018-07-26T08:43:42.387Z,30.58
2018-07-26T08:44:42.370Z,30.65
2018-07-26T08:45:42.360Z,30.67
2018-07-26T08:46:42.347Z,30.67
2018-07-26T08:47:42.336Z,30.73
2018-07-26T08:48:42.332Z,30.72
2018-07-26T08:49:42.322Z,30.69
2018-07-26T08:50:42.311Z,30.83
2018-07-26T08:51:42.303Z,30.80
2018-07-26T08:52:42.291Z,30.94
2018-07-26T08:53:42.285Z,30.99
2018-07-26T08:54:42.324Z,31.17
2018-07-26T08:55:42.267Z,31.23
2018-07-26T08:56:42.260Z,31.25
2018-07-26T08:57:42.250Z,31.26
2018-07-26T08:58:42.242Z,31.25
2018-07-26T08:59:42.239Z,31.28
2018-07-26T09:00:42.224Z,31.39
2018-07-26T09:01:42.223Z,31.43
2018-07-26T09:02:42.230Z,31.58
2018-07-26T09:03:42.201Z,31.47
2018-07-26T09:04:42.197Z,31.56
2018-07-26T09:05:42.187Z,31.53
2018-07-26T09:06:42.174Z,31.65
2018-07-26T09:07:42.167Z,31.65
2018-07-26T09:08:42.159Z,31.70
2018-07-26T09:09:42.159Z,31.68
2018-07-26T09:10:42.149Z,31.78
2018-07-26T09:11:42.134Z,31.78
2018-07-26T09:12:42.126Z,31.78
2018-07-26T09:13:42.177Z,31.81
2018-07-26T09:14:42.109Z,31.78
2018-07-26T09:15:42.102Z,31.89
2018-07-26T09:16:42.095Z,31.89
2018-07-26T09:17:42.084Z,32.07
2018-07-26T09:18:42.079Z,32.01
2018-07-26T09:19:42.146Z,32.06
2018-07-26T09:20:42.070Z,32.13
2018-07-26T09:21:42.061Z,32.11
2018-07-26T09:22:42.049Z,32.10
2018-07-26T09:23:42.039Z,32.15
2018-07-26T09:24:42.037Z,32.19
2018-07-26T09:25:42.022Z,32.13
2018-07-26T09:26:42.013Z,32.21
2018-07-26T09:27:42.004Z,32.32
2018-07-26T09:28:42.013Z,32.32
2018-07-26T09:30:49.573Z,32.48
2018-07-26T09:31:49.566Z,32.56
2018-07-26T09:32:49.561Z,32.51
2018-07-26T09:33:49.547Z,32.56
2018-07-26T09:34:49.550Z,32.69
2018-07-26T09:35:49.537Z,32.87
2018-07-26T09:36:49.524Z,32.87
2018-07-26T09:37:49.516Z,32.97
2018-07-26T09:38:49.515Z,32.93
2018-07-26T09:39:49.500Z,32.84
2018-07-26T09:47:02.106Z,33.22
2018-07-26T09:48:02.102Z,33.23
2018-07-26T09:49:02.089Z,33.29
2018-07-26T10:05:24.055Z,33.63
2018-07-26T10:06:24.046Z,33.73
2018-07-26T10:07:24.034Z,33.68
2018-07-26T10:08:24.017Z,33.60
2018-07-26T10:09:24.007Z,33.65
2018-07-26T10:10:23.996Z,33.76
2018-07-26T10:11:23.994Z,33.76
2018-07-26T10:12:23.979Z,33.88
2018-07-26T10:13:23.971Z,33.79
2018-07-26T10:14:23.958Z,33.71
2018-07-26T10:15:23.952Z,33.88
2018-07-26T10:16:23.987Z,33.91
2018-07-26T10:17:23.935Z,33.88
2018-07-26T10:18:23.924Z,33.94
2018-07-26T10:19:23.916Z,33.93
2018-07-26T10:20:23.904Z,34.09
2018-07-26T10:21:23.898Z,33.91
2018-07-26T10:22:23.887Z,33.90
2018-07-26T10:23:23.876Z,33.88
2018-07-26T10:24:23.872Z,33.95
2018-07-26T10:25:23.866Z,33.88
2018-07-26T10:26:23.854Z,33.98
2018-07-26T10:27:23.845Z,33.91
2018-07-26T10:28:23.835Z,33.90
2018-07-26T10:29:23.831Z,33.91
2018-07-26T10:30:23.831Z,33.93
2018-07-26T10:31:23.812Z,33.86
2018-07-26T10:32:23.804Z,33.98
2018-07-26T10:33:23.795Z,34.06
2018-07-26T10:34:23.786Z,34.05
2018-07-26T10:35:23.787Z,34.10
2018-07-26T10:36:23.781Z,34.19
2018-07-26T10:37:23.769Z,34.28
2018-07-26T10:38:23.771Z,34.19
2018-07-26T10:39:23.759Z,34.12
2018-07-26T10:40:23.747Z,34.03
2018-07-26T10:41:23.753Z,33.88
2018-07-26T10:42:23.736Z,33.84
2018-07-26T10:43:23.727Z,33.81
2018-07-26T10:44:23.720Z,33.73
2018-07-26T10:45:23.718Z,33.72
2018-07-26T10:46:23.710Z,33.72
2018-07-26T10:47:23.702Z,33.87
2018-07-26T10:48:23.691Z,33.88
2018-07-26T10:49:23.683Z,33.98
2018-07-26T10:50:23.693Z,34.05
2018-07-26T10:51:23.672Z,34.09
2018-07-26T10:52:23.671Z,34.22
2018-07-26T10:53:23.659Z,34.16
2018-07-26T10:54:23.651Z,34.21
2018-07-26T10:55:23.656Z,34.25
2018-07-26T10:56:23.646Z,34.32
2018-07-26T10:57:23.630Z,34.16
2018-07-26T10:58:23.628Z,34.22
2018-07-26T10:59:23.621Z,34.28
2018-07-26T11:00:23.632Z,34.32
2018-07-26T11:01:23.603Z,34.31
2018-07-26T11:02:23.601Z,34.42
2018-07-26T11:03:23.591Z,34.34
2018-07-26T11:04:23.584Z,34.44
2018-07-26T11:05:23.586Z,34.46
2018-07-26T11:06:23.572Z,34.44
2018-07-26T11:07:23.564Z,34.59
2018-07-26T11:08:23.561Z,34.59
2018-07-26T11:09:23.556Z,34.65
2018-07-26T11:10:23.545Z,34.66
2018-07-26T11:11:23.538Z,34.69
2018-07-26T11:12:23.533Z,34.66
2018-07-26T11:13:23.528Z,34.58
2018-07-26T11:14:23.539Z,34.62
2018-07-26T11:15:23.516Z,34.59
2018-07-26T11:16:23.507Z,34.64
2018-07-26T11:17:23.502Z,34.64
2018-07-26T11:18:23.497Z,34.72
2018-07-26T11:19:23.492Z,34.59
2018-07-26T11:20:23.485Z,34.59
2018-07-26T11:21:23.483Z,34.46
2018-07-26T11:22:23.468Z,34.53
2018-07-26T11:23:23.460Z,34.62
2018-07-26T11:24:23.459Z,34.70
2018-07-26T11:25:23.453Z,34.72
2018-07-26T11:26:23.450Z,34.53
2018-07-26T11:27:23.452Z,34.42
2018-07-26T11:28:23.429Z,34.34
2018-07-26T11:29:23.437Z,34.32
2018-07-26T11:30:23.420Z,34.39
2018-07-26T11:31:23.412Z,34.35
2018-07-26T11:32:23.437Z,34.49
2018-07-26T11:33:23.407Z,34.56
2018-07-26T11:34:23.396Z,34.53
2018-07-26T11:35:23.386Z,34.46
2018-07-26T11:36:23.377Z,34.46
2018-07-26T11:37:23.378Z,34.47
2018-07-26T11:38:23.369Z,34.62
2018-07-26T11:39:23.366Z,34.64
2018-07-26T11:40:23.366Z,34.59
2018-07-26T11:41:23.408Z,34.64
2018-07-26T11:42:23.353Z,34.64
2018-07-26T11:43:23.336Z,34.61
2018-07-26T11:44:23.342Z,34.73
2018-07-26T11:45:23.334Z,34.56
2018-07-26T11:46:23.317Z,34.53
2018-07-26T11:47:23.311Z,34.65
2018-07-26T11:48:23.303Z,34.64
2018-07-26T11:49:23.301Z,34.70
2018-07-26T11:50:23.294Z,34.84
2018-07-26T11:51:23.345Z,34.80
2018-07-26T11:52:23.281Z,34.59
2018-07-26T11:53:23.274Z,34.50
2018-07-26T11:54:23.269Z,34.42
2018-07-26T11:55:23.260Z,34.47
2018-07-26T11:56:23.263Z,34.58
2018-07-26T11:57:23.251Z,34.59
2018-07-26T11:58:23.242Z,34.69
2018-07-26T11:59:23.240Z,34.62
2018-07-26T12:00:23.233Z,34.66
2018-07-26T12:01:23.224Z,34.62
2018-07-26T12:02:23.282Z,34.50
2018-07-26T12:03:23.218Z,34.40
2018-07-26T12:04:23.205Z,34.59
2018-07-26T12:05:23.201Z,34.77
2018-07-26T12:06:23.194Z,34.87
2018-07-26T12:07:23.190Z,34.85
2018-07-26T12:08:23.188Z,34.85
2018-07-26T12:09:23.181Z,34.97
2018-07-26T12:10:23.174Z,34.97
2018-07-26T12:11:23.171Z,34.89
2018-07-26T12:12:23.160Z,35.02
2018-07-26T12:13:23.154Z,34.85
2018-07-26T12:14:23.227Z,34.84
2018-07-26T12:15:23.142Z,34.66
2018-07-26T12:16:23.137Z,34.75
2018-07-26T12:17:23.126Z,34.87
2018-07-26T12:18:23.122Z,34.87
2018-07-26T12:19:23.113Z,34.84
2018-07-26T12:20:23.115Z,34.82
2018-07-26T12:21:23.100Z,34.81
2018-07-26T12:22:23.100Z,34.77
2018-07-26T12:23:23.095Z,34.91
2018-07-26T12:24:23.095Z,35.00
2018-07-26T12:25:23.076Z,35.02
2018-07-26T12:26:23.082Z,34.97
2018-07-26T12:27:23.066Z,35.10
2018-07-26T12:28:23.060Z,35.25
2018-07-26T12:29:23.054Z,35.28
2018-07-26T12:30:23.053Z,35.34
2018-07-26T12:31:23.040Z,35.26
2018-07-26T12:32:23.040Z,35.16
2018-07-26T12:33:23.030Z,35.26
2018-07-26T12:34:23.026Z,35.36
2018-07-26T12:35:23.023Z,35.44
2018-07-26T12:36:23.012Z,35.28
2018-07-26T12:37:23.008Z,35.28
2018-07-26T12:38:23.001Z,35.40
2018-07-26T12:39:23.003Z,35.33
2018-07-26T12:40:22.994Z,35.29
2018-07-26T12:41:22.987Z,35.18
2018-07-26T12:42:22.977Z,35.23
2018-07-26T12:43:22.972Z,35.18
2018-07-26T12:44:22.967Z,35.26
2018-07-26T12:45:22.966Z,34.97
2018-07-26T12:46:22.958Z,34.97
2018-07-26T12:47:23.009Z,35.00
2018-07-26T12:48:22.965Z,35.14
2018-07-26T12:49:22.938Z,35.16
2018-07-26T12:50:22.931Z,35.22
2018-07-26T12:51:22.928Z,35.21
2018-07-26T12:52:22.922Z,35.26
2018-07-26T12:53:22.913Z,35.37
2018-07-26T12:54:22.909Z,35.21
2018-07-26T12:55:22.907Z,35.23
2018-07-26T12:56:22.897Z,35.16
2018-07-26T12:57:22.890Z,35.19
2018-07-26T12:58:22.888Z,35.29
2018-07-26T12:59:22.880Z,35.29
2018-07-26T13:00:22.882Z,35.31
2018-07-26T13:01:22.888Z,35.26
2018-07-26T13:02:22.861Z,35.29
2018-07-26T13:03:22.858Z,35.23
2018-07-26T13:04:22.850Z,35.26
2018-07-26T13:05:22.844Z,35.41
2018-07-26T13:06:22.840Z,35.59
2018-07-26T13:07:22.833Z,35.59
2018-07-26T13:08:22.836Z,35.62
2018-07-26T13:09:22.830Z,35.65
2018-07-26T13:10:22.819Z,35.78
2018-07-26T13:11:22.808Z,35.81
2018-07-26T13:12:22.849Z,35.82
2018-07-26T13:13:22.812Z,35.85
2018-07-26T13:14:22.800Z,35.84
2018-07-26T13:15:22.784Z,35.66
2018-07-26T13:16:22.783Z,35.62
2018-07-26T13:17:22.774Z,35.78